Flight Track Log - Related Links

Times and Time Zones

All times are in EDT time to prevent confusion due to time zone crossing. See the SWA22 flight status page for this flight to view local times or setup timezone preferences in your user account.

Time Position Orientation Groundspeed Altitude Reporting Facility
EDT Latitude Longitude Course Direction KTS MPH feet Rate Location/Type
Thu 02:23:49 PM 32.8667 -96.8833 301° West 183 211 2,200  Level Dallas / Fort Worth TRACON
Thu 02:25:00 PM 32.9211 -96.9879 306° West  Level Estimated
Thu 02:25:49 PM 32.9667 -96.9833 306° West 254 292 8,800  Level Dallas / Fort Worth TRACON
Thu 02:27:44 PM 33.0772 -97.1086 316° Northwest 295 339 13,000 2,366 Climbing Fort Worth Center
Thu 02:28:44 PM 33.0817 -97.2300 273° West 302 348 15,700 2,500 Climbing Fort Worth Center
Thu 02:29:00 PM 33.1129 -97.3756 301° West  Level FlightAware Approximate
Thu 02:29:44 PM 33.0817 -97.3342 270° West 335 386 18,000  Level Fort Worth Center
Thu 02:30:44 PM 33.0839 -97.4656 271° West 359 413 20,100 1,700 Climbing Fort Worth Center
Thu 02:31:44 PM 33.0881 -97.5819 272° West 386 444 21,400 1,850 Climbing Fort Worth Center
Thu 02:32:44 PM 33.0919 -97.7183 272° West 403 464 23,800 2,150 Climbing Fort Worth Center
Thu 02:33:44 PM 33.1269 -97.8500 288° West 392 451 25,700 1,600 Climbing Fort Worth Center
Thu 02:34:44 PM 33.1642 -97.9619 292° West 397 457 27,000 1,900 Climbing Fort Worth Center
Thu 02:35:44 PM 33.2031 -98.0936 289° West 402 463 29,500 1,950 Climbing Fort Worth Center
Thu 02:36:44 PM 33.2381 -98.2008 291° West 390 449 30,900 1,250 Climbing Fort Worth Center
Thu 02:37:44 PM 33.2789 -98.3303 291° West 384 442 32,000 1,150 Climbing Fort Worth Center
Thu 02:38:44 PM 33.3114 -98.4400 290° West 389 448 33,200 1,250 Climbing Fort Worth Center
Thu 02:39:44 PM 33.3500 -98.5672 290° West 384 442 34,500 1,150 Climbing Fort Worth Center
Thu 02:40:44 PM 33.3883 -98.6822 292° West 384 442 35,500 750 Climbing Fort Worth Center
Thu 02:41:44 PM 33.4247 -98.7997 290° West 379 436 36,000 250 Climbing Fort Worth Center
Thu 02:42:44 PM 33.4589 -98.9172 289° West 379 436 36,000  Level Fort Worth Center
Thu 02:43:44 PM 33.4950 -99.0350 290° West 379 436 36,000  Level Fort Worth Center
Thu 02:44:44 PM 33.5311 -99.1503 291° West 374 430 36,000  Level Fort Worth Center
Thu 02:45:43 PM 33.5836 -99.2611 300° West 374 430 36,000  Level Fort Worth Center
Thu 02:46:44 PM 33.6511 -99.3547 311° West 374 430 36,000  Level Fort Worth Center
Thu 02:47:44 PM 33.7164 -99.4511 309° West 380 437 36,000  Level Fort Worth Center
Thu 02:48:44 PM 33.7836 -99.5428 311° West 380 437 36,000  Level Fort Worth Center
Thu 02:49:44 PM 33.8489 -99.6419 308° West 374 430 36,000  Level Fort Worth Center
Thu 02:50:43 PM 33.9158 -99.7361 311° West 374 430 36,000  Level Fort Worth Center
Thu 02:51:43 PM 33.9808 -99.8306 310° West 374 430 36,000  Level Fort Worth Center
Thu 02:52:44 PM 34.0458 -99.9275 309° West 374 430 36,000  Level Fort Worth Center
Thu 02:53:43 PM 34.1106 -100.0197 310° West 374 430 36,000 -677 Level Fort Worth Center
Thu 02:55:59 PM 34.2489 -100.2214 310° West 355 409 33,800 -1,000 Descending Albuquerque Center
Thu 02:57:01 PM 34.3097 -100.3119 309° West 348 400 32,700 -1,659 Descending Albuquerque Center
Thu 02:58:02 PM 34.3725 -100.4036 310° West 352 405 30,400 -2,244 Descending Albuquerque Center
Thu 02:59:04 PM 34.4347 -100.4944 310° West 352 405 28,100 -2,419 Descending Albuquerque Center
Thu 03:00:06 PM 34.5075 -100.6014 310° West 345 397 25,400 -1,984 Descending Albuquerque Center
Thu 03:01:08 PM 34.5631 -100.6856 309° West 327 376 24,000 -1,597 Descending Albuquerque Center
Thu 03:02:10 PM 34.6197 -100.7725 308° West 326 375 22,100 -2,390 Descending Albuquerque Center
Thu 03:03:11 PM 34.6556 -100.8858 291° West 355 409 19,100 -2,585 Descending Albuquerque Center
Thu 03:04:13 PM 34.6978 -100.9908 296° West 349 402 16,800 -2,032 Descending Albuquerque Center
Thu 03:05:15 PM 34.7603 -101.0717 313° West 334 384 14,900 -1,403 Descending Albuquerque Center
Thu 03:06:17 PM 34.8211 -101.1514 313° West 326 375 13,900 -1,548 Descending Albuquerque Center
Thu 03:07:19 PM 34.8900 -101.2475 311° West 320 368 11,700 -1,902 Descending Albuquerque Center
Thu 03:08:20 PM 34.9436 -101.3217 311° West 307 353 10,000 -1,610 Descending Albuquerque Center
Thu 03:09:22 PM 34.9936 -101.3900 312° West 288 331 8,400 -1,597 Descending Albuquerque Center
Thu 03:10:24 PM 35.0414 -101.4567 311° West 273 314 6,700 -1,452 Descending Albuquerque Center
Thu 03:11:26 PM 35.0878 -101.5219 311° West 264 304 5,400 -581 Descending Albuquerque Center
Thu 03:12:28 PM 35.1264 -101.5750 312° West 226 260 5,500 -145 Climbing Albuquerque Center
Thu 03:13:30 PM 35.1608 -101.6197 313° West 198 228 5,100 -629 Descending Albuquerque Center
Thu 03:14:32 PM 35.1972 -101.6606 317° Northwest 165 190 4,200 -726 Descending Albuquerque Center
Thu 03:15:34 PM 35.2250 -101.6908 318° Northwest 146 168 3,600 -581 Descending Albuquerque Center
Thu 03:17:00 PM 35.2167 -101.7000 321° Northwest  Level FlightAware Approximate

Login

Don't have an account? Register now (free) for customized features, flight alerts, and more!